Acton, Montana
Current Conditions -  °F | °C
As of 8:53 PM on Sunday 25 Jan 2015 (Local Time) from KBIL Reporting Station
Broken Clouds Broken Clouds  
Wind Chill: 11°   Ceiling: 25000
Heat Index: 11°   Visibility: 10mi
Dew Point: -1°   Wind: 15mph
Humidity: 43%   Direction: 220°SW
Pressure: 30.07"   Gusts: 26mph
Location:  45.93°N, 108.69°W
Report Text: KBIL 260353Z 22013G23KT 10SM BKN250 11/M01 A3007 RMK AO2 PK WND 26027/0311 SLP187 T01111011
Loading
Personal Weather Stations






























Interactive Weather Map New forecast layout! Learn more

10-Day Weather Forecast

Advertisements
Track Severe Weather on mobile